Time;durP1;ratioP1;P1;durP2;ratioP2;P2;SDS_P1;SDS_P2;PMS_P1;PMS_P2;Temp;Humidity;BMP_temperature;BMP_pressure;BME280_temperature;BME280_humidity;BME280_pressure;Samples;Min_cycle;Max_cycle;Signal;HPM_P1;HPM_P2
2023/06/15 00:01:04;;;;;;;5.40;4.10;;;;;;;22.14;45.12;102016.50;5009401;28;20125;-45
2023/06/15 00:03:30;;;;;;;7.22;4.32;;;;;;;22.17;44.96;102019.97;5010069;28;20497;-45
2023/06/15 00:05:56;;;;;;;10.00;5.07;;;;;;;22.09;45.20;102023.63;5009355;28;20096;-49
2023/06/15 00:08:21;;;;;;;8.95;6.18;;;;;;;21.93;45.51;102022.97;5009802;28;20034;-46
2023/06/15 00:10:47;;;;;;;8.25;6.30;;;;;;;21.91;45.51;102016.78;5009102;28;20116;-48
2023/06/15 00:13:12;;;;;;;7.53;5.68;;;;;;;21.86;45.50;102021.31;5009355;28;20030;-49
2023/06/15 00:15:39;;;;;;;7.60;4.90;;;;;;;21.84;45.43;102018.66;5008294;28;20038;-44
2023/06/15 00:18:05;;;;;;;6.85;4.97;;;;;;;21.79;45.66;102020.50;5008527;28;20034;-44
2023/06/15 00:20:30;;;;;;;6.05;4.90;;;;;;;21.75;46.12;102023.25;5008749;28;20124;-47
2023/06/15 00:22:58;;;;;;;6.63;4.85;;;;;;;21.72;45.99;102013.53;5008720;28;20077;-49
2023/06/15 00:25:24;;;;;;;6.57;4.43;;;;;;;21.67;46.25;102020.69;5008414;28;20034;-49
2023/06/15 00:27:50;;;;;;;6.57;4.80;;;;;;;21.59;46.72;102013.75;5009787;28;20038;-44
2023/06/15 00:30:15;;;;;;;7.03;5.20;;;;;;;21.58;46.58;102025.25;5012414;28;20033;-46
2023/06/15 00:32:41;;;;;;;7.00;5.18;;;;;;;21.58;46.51;102025.25;5012479;28;20511;-46
2023/06/15 00:35:07;;;;;;;10.23;4.75;;;;;;;21.62;46.78;102032.28;5011211;28;20042;-49
2023/06/15 00:37:32;;;;;;;7.03;4.18;;;;;;;21.68;46.41;102027.75;5012406;28;20501;-50
2023/06/15 00:39:58;;;;;;;8.43;4.40;;;;;;;21.68;46.46;102032.19;5011533;28;20034;-45
2023/06/15 00:42:23;;;;;;;5.70;4.20;;;;;;;21.69;46.32;102021.56;5012173;28;20546;-48
2023/06/15 00:44:48;;;;;;;5.95;4.13;;;;;;;21.76;46.03;102023.22;5011386;28;20896;-45
2023/06/15 00:47:18;;;;;;;11.40;3.95;;;;;;;21.84;46.11;102025.75;5012327;28;20508;-45
2023/06/15 00:49:44;;;;;;;7.28;4.03;;;;;;;21.83;46.04;102022.22;5011957;28;20030;-45
2023/06/15 00:52:11;;;;;;;8.10;4.70;;;;;;;21.81;46.12;102017.84;5012151;28;20141;-47
2023/06/15 00:54:40;;;;;;;6.47;4.53;;;;;;;21.77;46.51;102019.66;5011584;28;20096;-49
2023/06/15 00:57:09;;;;;;;8.02;4.93;;;;;;;21.71;46.73;102022.38;5011623;28;20104;-44
2023/06/15 00:59:35;;;;;;;6.07;4.60;;;;;;;21.78;46.62;102025.84;5011848;28;20052;-47
2023/06/15 01:02:03;;;;;;;6.10;4.05;;;;;;;21.90;46.27;102023.00;5011741;28;20408;-50
2023/06/15 01:04:29;;;;;;;7.05;4.53;;;;;;;21.93;46.32;102028.28;5011840;28;20030;-45
2023/06/15 01:07:01;;;;;;;6.55;4.70;;;;;;;21.84;46.98;102026.63;5011154;28;20531;-50
2023/06/15 01:09:30;;;;;;;6.20;4.40;;;;;;;21.85;47.02;102025.72;4993915;28;20034;-47
2023/06/15 01:11:58;;;;;;;8.65;4.60;;;;;;;21.84;47.38;102031.94;5019895;28;20065;-46
2023/06/15 01:14:27;;;;;;;7.57;5.00;;;;;;;21.74;47.86;102026.78;5020602;28;20036;-46
2023/06/15 01:16:57;;;;;;;8.13;4.80;;;;;;;21.87;47.59;102033.69;5010926;28;20493;-45
2023/06/15 01:19:29;;;;;;;7.15;4.50;;;;;;;21.93;47.25;102035.38;5011455;28;20069;-45
2023/06/15 01:22:02;;;;;;;8.77;4.72;;;;;;;21.51;48.77;102036.84;5011662;28;20192;-50
2023/06/15 01:24:35;;;;;;;8.35;4.75;;;;;;;21.79;48.22;102033.78;5012123;28;20034;-46
2023/06/15 01:27:04;;;;;;;8.15;5.43;;;;;;;21.75;48.38;102025.91;5011454;28;20073;-44
2023/06/15 01:29:34;;;;;;;7.93;5.15;;;;;;;21.69;48.85;102040.13;5011533;28;20038;-45
2023/06/15 01:32:01;;;;;;;8.25;4.75;;;;;;;21.87;48.40;102028.38;5011308;28;20046;-44
2023/06/15 01:34:27;;;;;;;6.15;4.65;;;;;;;21.95;47.91;102030.91;4993885;28;20064;-47
2023/06/15 01:36:52;;;;;;;6.72;4.68;;;;;;;21.82;48.64;102030.22;5010903;28;20500;-46
2023/06/15 01:39:17;;;;;;;7.40;4.88;;;;;;;21.83;48.52;102032.81;5011598;28;20534;-44
2023/06/15 01:41:44;;;;;;;10.73;5.10;;;;;;;21.80;48.82;102029.34;5011035;28;20049;-44
2023/06/15 01:44:10;;;;;;;11.10;5.40;;;;;;;21.73;49.37;102038.31;5011037;28;20385;-46
2023/06/15 01:46:35;;;;;;;6.70;5.10;;;;;;;21.84;49.00;102033.72;5010772;28;20045;-47
2023/06/15 01:49:01;;;;;;;10.60;5.00;;;;;;;21.84;48.76;102031.94;5010790;28;25090;-48
2023/06/15 01:51:28;;;;;;;7.55;5.50;;;;;;;21.71;49.61;102033.00;5010935;28;20034;-51
2023/06/15 01:53:53;;;;;;;8.98;5.55;;;;;;;21.78;49.46;102044.41;5010762;28;20088;-46
2023/06/15 01:56:19;;;;;;;10.98;5.38;;;;;;;21.78;49.46;102041.75;5010836;28;20034;-45
2023/06/15 01:58:45;;;;;;;8.70;5.57;;;;;;;21.79;49.25;102036.44;5010505;28;20408;-50
2023/06/15 02:01:10;;;;;;;9.93;5.70;;;;;;;21.69;49.79;102040.13;5011232;28;20042;-49
2023/06/15 02:03:35;;;;;;;8.77;5.15;;;;;;;21.77;49.59;102038.22;5010972;28;20512;-45
2023/06/15 02:06:01;;;;;;;15.07;5.97;;;;;;;21.66;49.93;102045.47;5012590;28;20034;-51
2023/06/15 02:08:26;;;;;;;9.25;5.10;;;;;;;21.79;49.53;102040.88;5013067;28;20428;-46
2023/06/15 02:10:51;;;;;;;10.43;5.43;;;;;;;21.72;49.58;102032.13;5012297;28;20030;-48
2023/06/15 02:13:17;;;;;;;9.93;5.28;;;;;;;21.73;49.67;102049.81;5011444;28;20496;-47
2023/06/15 02:15:42;;;;;;;7.22;5.20;;;;;;;21.66;49.89;102040.16;5011280;28;20088;-47
2023/06/15 02:18:14;;;;;;;8.52;5.10;;;;;;;21.62;49.94;102038.47;5013248;28;20161;-49
2023/06/15 02:20:40;;;;;;;8.40;5.10;;;;;;;21.55;50.48;102035.91;5012750;28;20046;-45
2023/06/15 02:23:06;;;;;;;8.80;5.10;;;;;;;21.52;50.46;102043.94;5012418;28;20066;-52
2023/06/15 02:25:31;;;;;;;7.75;5.38;;;;;;;21.43;50.71;102045.78;5011126;28;20072;-43
2023/06/15 02:27:59;;;;;;;6.97;5.38;;;;;;;21.38;51.13;102054.69;5009911;28;20514;-49
2023/06/15 02:30:25;;;;;;;10.23;5.35;;;;;;;21.32;51.26;102046.81;5010358;28;20033;-49
2023/06/15 02:32:52;;;;;;;11.00;5.40;;;;;;;21.32;51.28;102044.16;5010253;28;20507;-45
2023/06/15 02:35:18;;;;;;;9.65;5.00;;;;;;;21.02;51.99;102053.34;5009545;28;20419;-45
2023/06/15 02:37:43;;;;;;;9.50;5.15;;;;;;;20.87;52.73;102050.81;5009918;28;20041;-45
2023/06/15 02:40:09;;;;;;;9.68;5.50;;;;;;;20.76;53.15;102056.25;5010318;28;20048;-45
2023/06/15 02:42:35;;;;;;;9.32;5.90;;;;;;;20.71;53.39;102054.53;5010621;28;20127;-49
2023/06/15 02:45:02;;;;;;;11.38;5.70;;;;;;;20.67;53.44;102053.69;5009086;28;20041;-45
2023/06/15 02:47:29;;;;;;;8.50;5.70;;;;;;;20.59;53.94;102051.13;5010659;28;20045;-45
2023/06/15 02:49:55;;;;;;;7.85;5.43;;;;;;;20.55;54.04;102059.13;5009108;28;20532;-47
2023/06/15 02:52:21;;;;;;;9.05;5.50;;;;;;;20.55;54.15;102048.53;5010110;28;20076;-47
2023/06/15 02:54:46;;;;;;;12.82;5.63;;;;;;;20.49;54.52;102048.56;5008969;28;20061;-46
2023/06/15 02:57:11;;;;;;;8.48;5.70;;;;;;;20.48;54.72;102047.69;5010525;28;20410;-45
2023/06/15 02:59:37;;;;;;;9.73;6.30;;;;;;;20.44;54.98;102051.25;5010975;28;20045;-45
2023/06/15 03:02:06;;;;;;;12.02;6.00;;;;;;;20.41;54.93;102050.41;5010271;28;20040;-47
2023/06/15 03:04:32;;;;;;;9.20;5.68;;;;;;;20.65;54.33;102052.81;5009555;28;20079;-46
2023/06/15 03:06:58;;;;;;;8.30;5.90;;;;;;;20.74;54.01;102057.19;5009603;28;20080;-47
2023/06/15 03:09:24;;;;;;;8.18;5.88;;;;;;;20.74;53.94;102059.81;5010742;28;20050;-44
2023/06/15 03:11:52;;;;;;;9.02;6.25;;;;;;;20.71;54.18;102055.41;5011828;28;20079;-44
2023/06/15 03:14:21;;;;;;;12.30;6.38;;;;;;;20.73;54.12;102063.38;5014109;28;20034;-50
2023/06/15 03:16:47;;;;;;;9.82;5.60;;;;;;;20.66;54.17;102062.53;5011836;28;20033;-47
2023/06/15 03:19:16;;;;;;;7.50;5.85;;;;;;;20.63;54.35;102059.91;5010087;28;20119;-46
2023/06/15 03:21:42;;;;;;;11.95;6.45;;;;;;;20.59;54.50;102058.19;5009785;28;20045;-45
2023/06/15 03:24:08;;;;;;;9.02;5.88;;;;;;;20.59;54.71;102059.06;4991666;28;20030;-43
2023/06/15 03:26:36;;;;;;;9.43;6.40;;;;;;;20.62;54.45;102060.78;5009372;28;20045;-43
2023/06/15 03:29:02;;;;;;;8.80;6.65;;;;;;;20.56;54.63;102053.78;5009332;28;20084;-47
2023/06/15 03:31:28;;;;;;;10.15;6.72;;;;;;;20.58;54.66;102053.78;5012269;28;20038;-45
2023/06/15 03:33:55;;;;;;;10.80;6.78;;;;;;;20.52;54.93;102059.13;5010705;28;20045;-47
2023/06/15 03:36:24;;;;;;;9.20;6.30;;;;;;;20.53;54.83;102063.53;4994400;28;20053;-48
2023/06/15 03:38:50;;;;;;;10.77;7.50;;;;;;;20.54;54.90;102060.88;5008945;28;20060;-45
2023/06/15 03:41:15;;;;;;;13.70;8.00;;;;;;;20.48;55.18;102068.00;5009686;28;20069;-46
2023/06/15 03:43:40;;;;;;;11.55;7.15;;;;;;;20.50;55.28;102072.38;5009834;28;20085;-46
2023/06/15 03:46:06;;;;;;;10.75;8.02;;;;;;;20.42;55.74;102073.34;5010194;28;20572;-46
2023/06/15 03:48:31;;;;;;;13.15;7.63;;;;;;;20.47;55.70;102069.78;5011577;28;20048;-45
2023/06/15 03:50:56;;;;;;;11.43;8.20;;;;;;;20.32;56.45;102067.22;5009659;28;20033;-49
2023/06/15 03:53:23;;;;;;;11.88;7.70;;;;;;;20.40;56.12;102070.72;5010654;28;20038;-48
2023/06/15 03:55:49;;;;;;;14.38;8.10;;;;;;;20.42;56.25;102074.25;5010601;28;20057;-44
2023/06/15 03:58:14;;;;;;;11.40;7.57;;;;;;;20.48;55.86;102073.31;5011441;28;20080;-44
2023/06/15 04:00:40;;;;;;;17.40;8.55;;;;;;;20.39;56.46;102070.72;5010918;28;20077;-46
2023/06/15 04:03:06;;;;;;;10.50;7.93;;;;;;;20.41;56.63;102076.88;5012765;28;20041;-46
2023/06/15 04:05:32;;;;;;;12.80;8.77;;;;;;;20.44;56.65;102075.06;5014918;28;20132;-45
2023/06/15 04:07:59;;;;;;;11.60;8.45;;;;;;;20.47;56.63;102076.84;5013004;28;20497;-44
2023/06/15 04:10:25;;;;;;;13.15;8.80;;;;;;;20.47;56.85;102071.53;5014181;28;20042;-47
2023/06/15 04:12:50;;;;;;;10.63;8.00;;;;;;;20.57;56.89;102071.44;5013631;28;20357;-43
2023/06/15 04:15:16;;;;;;;12.60;8.02;;;;;;;20.65;56.59;102085.50;5013307;28;20038;-47
2023/06/15 04:17:41;;;;;;;13.60;8.43;;;;;;;20.65;56.95;102080.22;5013926;28;20034;-45
2023/06/15 04:20:08;;;;;;;10.60;7.60;;;;;;;20.75;56.60;102081.00;5012489;28;20450;-54
2023/06/15 04:22:34;;;;;;;12.88;8.38;;;;;;;20.79;56.52;102082.75;5012724;28;20034;-45
2023/06/15 04:25:00;;;;;;;11.65;7.70;;;;;;;20.88;56.38;102082.63;5010826;28;20350;-46
2023/06/15 04:27:27;;;;;;;11.05;8.15;;;;;;;20.93;56.35;102080.81;5013377;28;20037;-48
2023/06/15 04:29:53;;;;;;;14.95;9.18;;;;;;;20.91;56.65;102079.09;5012653;28;20037;-45
2023/06/15 04:32:18;;;;;;;12.10;9.80;;;;;;;20.95;56.57;102083.44;5013253;28;20037;-43
2023/06/15 04:34:46;;;;;;;12.95;8.43;;;;;;;21.05;56.54;102093.94;5011954;28;20500;-45
2023/06/15 04:37:13;;;;;;;15.35;8.32;;;;;;;21.13;56.06;102095.63;5012812;28;20042;-49
2023/06/15 04:39:38;;;;;;;13.18;8.60;;;;;;;21.27;55.87;102096.41;5012855;28;20034;-46
2023/06/15 04:42:04;;;;;;;12.10;8.25;;;;;;;21.39;55.51;102096.25;4994884;28;20036;-44
2023/06/15 04:44:29;;;;;;;14.25;8.52;;;;;;;21.41;55.44;102097.97;5013105;28;20095;-44
2023/06/15 04:46:55;;;;;;;10.90;7.03;;;;;;;21.54;54.89;102098.72;5012534;28;20516;-45
2023/06/15 04:49:21;;;;;;;12.43;7.18;;;;;;;21.64;54.85;102097.72;5013116;28;20037;-46
2023/06/15 04:51:48;;;;;;;8.93;6.88;;;;;;;21.77;54.55;102096.63;5012810;28;20038;-52
2023/06/15 04:54:13;;;;;;;11.63;7.40;;;;;;;21.83;54.01;102106.31;5012930;28;20037;-45
2023/06/15 04:56:39;;;;;;;11.68;6.63;;;;;;;21.95;53.76;102103.53;5012417;28;20038;-49
2023/06/15 04:59:04;;;;;;;11.90;6.53;;;;;;;22.13;53.30;102110.34;5012065;28;20065;-46
2023/06/15 05:01:29;;;;;;;10.02;6.20;;;;;;;22.22;53.25;102105.75;5012312;28;20049;-44
2023/06/15 05:03:55;;;;;;;9.48;6.20;;;;;;;22.39;52.17;102107.25;5011515;28;20037;-45
2023/06/15 05:06:20;;;;;;;10.95;6.80;;;;;;;22.39;51.92;102107.25;5011735;28;20037;-45
2023/06/15 05:08:45;;;;;;;12.18;6.55;;;;;;;22.55;51.50;102100.81;5011375;28;20034;-45
2023/06/15 05:11:11;;;;;;;12.48;6.78;;;;;;;22.72;51.40;102098.78;5011984;28;20045;-47
2023/06/15 05:13:36;;;;;;;9.13;6.05;;;;;;;23.23;51.07;102107.59;5011991;28;20070;-47
2023/06/15 05:16:01;;;;;;;11.52;6.28;;;;;;;24.11;48.34;102111.03;5012227;28;20121;-47
2023/06/15 05:18:27;;;;;;;10.23;5.82;;;;;;;26.01;41.59;102103.25;5014314;28;20034;-50
2023/06/15 05:20:52;;;;;;;8.90;5.43;;;;;;;26.88;40.52;102095.97;5011110;28;20073;-45
2023/06/15 05:23:21;;;;;;;14.43;4.97;;;;;;;27.69;38.96;102093.84;5011700;28;20044;-49
2023/06/15 05:25:47;;;;;;;11.00;5.75;;;;;;;28.99;35.83;102094.78;5010714;28;20065;-45
2023/06/15 05:28:12;;;;;;;8.80;4.68;;;;;;;29.56;33.94;102093.13;5010217;28;20049;-50
2023/06/15 05:30:38;;;;;;;8.05;5.40;;;;;;;30.43;32.21;102092.47;5011203;28;20481;-46
2023/06/15 05:33:03;;;;;;;6.22;5.05;;;;;;;29.49;33.52;102091.66;5011140;28;20030;-50
2023/06/15 05:35:41;;;;;;;12.98;6.53;;;;;;;29.73;33.53;102091.38;5037888;23;20083;-79
2023/06/15 05:38:06;;;;;;;10.82;5.00;;;;;;;30.95;30.90;102093.38;5034109;28;20050;-80
2023/06/15 05:40:31;;;;;;;7.68;4.13;;;;;;;30.94;31.69;102087.13;5019507;28;20113;-78
2023/06/15 05:42:57;;;;;;;13.63;4.72;;;;;;;31.60;30.42;102094.41;5041360;28;20042;-78
2023/06/15 05:45:25;;;;;;;9.05;4.78;;;;;;;32.14;28.61;102088.59;5025580;28;20095;-79
2023/06/15 05:47:51;;;;;;;9.65;4.70;;;;;;;32.39;28.67;102095.28;5042949;28;20037;-80
2023/06/15 05:50:16;;;;;;;6.13;4.10;;;;;;;32.17;28.88;102093.84;5027272;28;20038;-78
2023/06/15 05:52:41;;;;;;;10.98;4.90;;;;;;;31.56;30.32;102098.19;5046464;28;20144;-78
2023/06/15 05:55:13;;;;;;;9.25;4.93;;;;;;;32.49;28.54;102094.66;5025526;28;20026;-79
2023/06/15 05:57:38;;;;;;;12.93;5.00;;;;;;;31.55;30.19;102099.13;5024214;28;20064;-78
2023/06/15 06:00:04;;;;;;;16.23;5.00;;;;;;;32.08;28.81;102099.72;5042134;28;20033;-79
2023/06/15 06:02:33;;;;;;;8.82;5.20;;;;;;;32.67;28.75;102092.72;5019192;28;20041;-79
2023/06/15 06:04:58;;;;;;;6.88;4.50;;;;;;;32.74;28.61;102098.63;5023810;28;20117;-79
2023/06/15 06:07:24;;;;;;;6.20;4.00;;;;;;;32.71;28.98;102096.97;5044083;28;20065;-79
2023/06/15 06:09:49;;;;;;;8.77;4.97;;;;;;;31.41;29.84;102098.06;5023729;28;20083;-80
2023/06/15 06:12:15;;;;;;;8.73;4.95;;;;;;;31.67;30.55;102095.81;5020822;28;20258;-83
2023/06/15 06:14:46;;;;;;;10.13;4.97;;;;;;;32.10;29.37;102097.81;5020330;28;20572;-80
2023/06/15 06:17:12;;;;;;;7.38;5.03;;;;;;;31.91;29.94;102102.50;5032968;28;20415;-82
2023/06/15 06:19:37;;;;;;;8.60;5.10;;;;;;;32.88;28.29;102106.75;5016815;28;20037;-80
2023/06/15 06:22:03;;;;;;;12.40;5.03;;;;;;;33.16;28.07;102098.69;5034447;28;20038;-81
2023/06/15 06:24:28;;;;;;;11.55;5.10;;;;;;;31.95;28.79;102098.69;5016141;28;20045;-80
2023/06/15 06:26:57;;;;;;;8.88;5.28;;;;;;;31.98;29.67;102094.94;5033634;28;20068;-80
2023/06/15 06:29:25;;;;;;;11.48;5.40;;;;;;;32.14;28.79;102096.69;5033790;28;20546;-80
2023/06/15 06:31:50;;;;;;;8.75;4.40;;;;;;;33.31;27.96;102099.59;5033154;28;20029;-80
2023/06/15 06:34:16;;;;;;;8.48;4.22;;;;;;;34.01;27.04;102101.38;5033510;28;20052;-81
2023/06/15 06:36:41;;;;;;;9.90;4.70;;;;;;;34.54;25.93;102102.38;5037441;28;20083;-80
2023/06/15 06:39:10;;;;;;;10.57;4.78;;;;;;;33.84;26.41;102104.34;5023256;28;20056;-78
2023/06/15 06:41:35;;;;;;;10.27;5.00;;;;;;;33.43;27.89;102101.53;5045538;28;20052;-78
2023/06/15 06:44:00;;;;;;;9.27;5.35;;;;;;;33.30;27.52;102098.72;5026816;28;20064;-80
2023/06/15 06:46:26;;;;;;;9.13;5.10;;;;;;;34.71;25.76;102090.41;5019991;28;20034;-80
2023/06/15 06:48:57;;;;;;;12.25;4.63;;;;;;;34.41;25.98;102099.63;5018225;28;20099;-82
2023/06/15 06:51:23;;;;;;;7.40;3.72;;;;;;;35.20;25.12;102096.00;5035667;28;20079;-81
2023/06/15 06:53:51;;;;;;;9.13;4.32;;;;;;;34.39;25.95;102103.41;5034683;28;20034;-80
2023/06/15 06:56:16;;;;;;;9.05;4.63;;;;;;;34.94;25.09;102097.81;5036106;28;20065;-80
2023/06/15 06:58:42;;;;;;;7.50;4.30;;;;;;;34.04;26.07;102103.00;5017638;28;20454;-81
2023/06/15 07:01:13;;;;;;;9.70;4.95;;;;;;;33.60;26.57;102095.06;5033106;28;20056;-80
2023/06/15 07:03:39;;;;;;;6.13;3.92;;;;;;;35.35;24.53;102098.50;5034517;28;20120;-80
2023/06/15 07:06:04;;;;;;;9.20;4.20;;;;;;;35.30;23.94;102094.38;5033782;28;20061;-79
2023/06/15 07:08:30;;;;;;;11.57;4.25;;;;;;;34.10;26.15;102094.47;5035072;28;20400;-78
2023/06/15 07:10:55;;;;;;;7.90;3.75;;;;;;;35.40;24.42;102098.16;5036714;28;20117;-81
2023/06/15 07:13:24;;;;;;;10.73;4.28;;;;;;;34.89;24.17;102094.53;5045315;28;20057;-81
2023/06/15 07:15:54;;;;;;;8.82;4.40;;;;;;;31.91;27.82;102099.81;5048464;28;20037;-78
2023/06/15 07:18:20;;;;;;;5.75;3.55;;;;;;;34.63;25.58;102100.88;5030768;28;20038;-80
2023/06/15 07:20:45;;;;;;;7.32;3.40;;;;;;;35.52;24.03;102101.84;5028184;28;20132;-79
2023/06/15 07:23:13;;;;;;;8.38;4.00;;;;;;;36.22;22.90;102100.28;5043914;28;20064;-82
2023/06/15 07:25:41;;;;;;;6.80;4.03;;;;;;;35.18;24.68;102106.94;5045375;28;20030;-81
2023/06/15 07:28:07;;;;;;;6.32;4.00;;;;;;;35.24;23.91;102102.97;5032514;28;20091;-79
2023/06/15 07:30:32;;;;;;;6.03;3.30;;;;;;;36.06;22.63;102096.94;5015258;28;20045;-81
2023/06/15 07:32:58;;;;;;;7.10;4.05;;;;;;;36.05;23.14;102101.50;5014180;28;20076;-81
2023/06/15 07:35:23;;;;;;;8.68;3.75;;;;;;;35.25;24.05;102102.84;5032011;28;20037;-81
2023/06/15 07:37:48;;;;;;;7.93;3.53;;;;;;;36.41;21.31;102106.06;5016835;28;20715;-78
2023/06/15 07:40:14;;;;;;;7.75;3.70;;;;;;;37.10;20.73;102101.59;5035933;28;20498;-80
2023/06/15 07:42:39;;;;;;;5.40;3.47;;;;;;;36.02;22.16;102104.47;5036175;28;20033;-79
2023/06/15 07:45:11;;;;;;;8.57;3.75;;;;;;;36.36;20.92;102107.38;5035777;28;20206;-80
2023/06/15 07:47:41;;;;;;;7.70;3.50;;;;;;;35.33;22.52;102105.88;5035445;28;20037;-81
2023/06/15 07:50:07;;;;;;;7.18;3.53;;;;;;;35.80;20.67;102104.31;5035344;28;20030;-81
2023/06/15 07:52:32;;;;;;;8.07;4.20;;;;;;;34.70;22.85;102097.69;5018010;28;20117;-81
2023/06/15 07:54:57;;;;;;;7.43;3.85;;;;;;;34.35;23.87;102102.75;5033480;28;20393;-79
2023/06/15 07:57:23;;;;;;;5.70;3.40;;;;;;;35.86;22.33;102108.44;5034929;28;20057;-79
2023/06/15 07:59:51;;;;;;;8.55;3.75;;;;;;;35.90;22.45;102102.66;5033697;28;20380;-79
2023/06/15 08:02:16;;;;;;;7.30;3.90;;;;;;;35.97;22.63;102109.38;5035978;28;20045;-80
2023/06/15 08:04:56;;;;;;;10.52;4.53;;;;;;;33.71;24.31;102108.78;5017914;28;20091;-80
2023/06/15 08:07:22;;;;;;;8.75;4.07;;;;;;;32.69;26.76;102098.91;5019101;28;20064;-80
2023/06/15 08:09:50;;;;;;;6.88;4.10;;;;;;;34.68;23.68;102105.00;5035725;28;20120;-82
2023/06/15 08:12:17;;;;;;;7.93;3.83;;;;;;;36.08;22.35;102106.72;5018220;28;20037;-78
2023/06/15 08:14:42;;;;;;;5.60;3.80;;;;;;;36.12;22.63;102093.75;5037460;28;20437;-84
2023/06/15 08:17:10;;;;;;;6.82;3.75;;;;;;;36.68;19.62;102094.06;5037891;28;20044;-86
2023/06/15 08:19:36;;;;;;;7.15;3.50;;;;;;;36.86;18.27;102096.22;5019897;28;20097;-84
2023/06/15 08:22:02;;;;;;;10.90;3.55;;;;;;;34.25;22.74;102098.94;5038858;28;20072;-85
2023/06/15 08:24:28;;;;;;;12.55;3.90;;;;;;;34.73;23.66;102100.16;5038897;28;20068;-86
2023/06/15 08:26:54;;;;;;;7.68;3.83;;;;;;;35.95;20.92;102108.59;5036986;28;20057;-84
2023/06/15 08:29:19;;;;;;;6.22;3.65;;;;;;;34.90;22.43;102101.69;5039254;28;20546;-82
2023/06/15 08:31:48;;;;;;;9.27;3.92;;;;;;;35.52;22.43;102104.53;5019999;28;20037;-80
2023/06/15 08:34:16;;;;;;;5.05;3.50;;;;;;;37.31;18.22;102109.91;5040665;28;20053;-83
2023/06/15 08:36:46;;;;;;;6.38;3.20;;;;;;;37.65;17.26;102106.22;5023474;28;20049;-82
2023/06/15 08:39:11;;;;;;;9.43;3.40;;;;;;;36.23;19.50;102106.59;5042272;28;20038;-80
2023/06/15 08:41:39;;;;;;;8.02;3.28;;;;;;;35.40;20.54;102098.16;5044453;28;20046;-83
2023/06/15 08:44:08;;;;;;;6.18;3.35;;;;;;;34.71;20.14;102099.41;5048063;28;20029;-82
2023/06/15 08:46:33;;;;;;;7.53;3.90;;;;;;;33.90;22.29;102106.63;5028178;28;20128;-83
2023/06/15 08:48:59;;;;;;;8.57;3.90;;;;;;;31.32;24.16;102105.78;5028943;28;20048;-84
2023/06/15 08:51:28;;;;;;;8.68;3.75;;;;;;;31.52;25.59;102102.03;5030974;28;20041;-82
2023/06/15 08:53:57;;;;;;;6.22;3.60;;;;;;;31.71;26.76;102109.03;5044711;28;20041;-83
2023/06/15 08:56:22;;;;;;;7.97;3.88;;;;;;;31.49;24.19;102107.56;5038675;28;20044;-84
2023/06/15 08:58:51;;;;;;;6.72;3.60;;;;;;;31.71;24.95;102106.34;5018629;28;20037;-82
2023/06/15 09:01:22;;;;;;;5.35;3.90;;;;;;;31.80;24.07;102103.13;5037476;28;20034;-83
2023/06/15 09:03:54;;;;;;;9.23;4.05;;;;;;;31.32;25.10;102108.50;5019637;28;20040;-84
2023/06/15 09:06:21;;;;;;;5.60;4.00;;;;;;;31.47;25.49;102102.28;5037109;28;20036;-84
2023/06/15 09:08:48;;;;;;;9.15;3.90;;;;;;;31.64;25.79;102109.47;5037568;28;20037;-84
2023/06/15 09:11:14;;;;;;;11.95;3.83;;;;;;;31.41;25.43;102105.31;5020113;28;20399;-86
2023/06/15 09:13:40;;;;;;;7.85;4.22;;;;;;;30.83;26.37;102107.47;5040926;28;20072;-82
2023/06/15 09:16:11;;;;;;;8.48;4.22;;;;;;;30.31;27.02;102102.03;5024773;28;20033;-85
2023/06/15 09:18:52;;;;;;;11.77;4.30;;;;;;;30.41;25.85;102103.31;5042870;28;20565;-84
2023/06/15 09:21:22;;;;;;;6.95;4.20;;;;;;;30.91;25.47;102099.88;5043418;28;20053;-84
2023/06/15 09:23:49;;;;;;;8.27;3.95;;;;;;;31.25;25.56;102102.56;5020964;28;20038;-84
2023/06/15 09:26:26;;;;;;;8.13;4.18;;;;;;;31.02;25.31;102103.75;5005718;28;20490;-84
2023/06/15 09:28:55;;;;;;;8.13;4.00;;;;;;;31.41;25.32;102108.84;5019043;28;20044;-84
2023/06/15 09:31:34;;;;;;;6.38;4.05;;;;;;;31.37;24.71;102107.28;5036543;28;20041;-81
2023/06/15 09:34:16;;;;;;;7.22;4.43;;;;;;;30.87;25.14;102106.38;5036878;28;20091;-85
2023/06/15 09:36:48;;;;;;;7.07;3.92;;;;;;;31.36;24.73;102110.94;5039315;28;20037;-83
2023/06/15 09:39:15;;;;;;;7.38;3.85;;;;;;;31.11;24.37;102107.81;5038883;28;20097;-83
2023/06/15 09:42:00;;;;;;;9.93;4.22;;;;;;;31.04;24.47;102101.88;5041193;28;20038;-81
2023/06/15 09:44:26;;;;;;;7.40;4.13;;;;;;;31.28;26.37;102105.09;5041205;28;20041;-83
2023/06/15 09:46:53;;;;;;;11.27;4.70;;;;;;;30.96;24.87;102103.22;5031259;28;20093;-83
2023/06/15 09:49:23;;;;;;;7.70;4.30;;;;;;;30.64;25.20;102111.13;5034076;28;20057;-84
2023/06/15 09:51:52;;;;;;;8.57;4.60;;;;;;;30.91;24.99;102097.19;5050362;28;20026;-83
2023/06/15 09:54:38;;;;;;;8.02;4.32;;;;;;;30.70;25.42;102099.16;5057988;28;20068;-84
2023/06/15 09:57:04;;;;;;;8.40;4.05;;;;;;;31.15;25.12;102105.84;5040152;28;20063;-82
2023/06/15 09:59:33;;;;;;;8.95;4.20;;;;;;;30.74;24.57;102100.75;5047480;28;20061;-81
2023/06/15 10:02:04;;;;;;;11.55;4.32;;;;;;;30.81;25.58;102101.31;5023552;28;20045;-83
2023/06/15 10:04:36;;;;;;;7.95;4.40;;;;;;;30.90;25.44;102099.03;5044354;28;20041;-83
2023/06/15 10:07:03;;;;;;;7.45;4.00;;;;;;;31.16;24.97;102105.75;5037298;28;20186;-84
2023/06/15 10:09:44;;;;;;;8.25;4.28;;;;;;;31.15;24.04;102100.44;5036435;28;20045;-83
2023/06/15 10:12:18;;;;;;;9.85;4.38;;;;;;;31.73;24.49;102099.03;5035526;28;20579;-83
2023/06/15 10:14:48;;;;;;;10.60;4.35;;;;;;;31.28;24.62;102106.94;5035030;28;20038;-84
2023/06/15 10:17:32;;;;;;;6.35;3.90;;;;;;;31.83;24.92;102104.78;5033386;28;20029;-82
2023/06/15 10:20:08;;;;;;;7.15;4.15;;;;;;;31.98;24.18;102095.81;5015152;28;20052;-82
2023/06/15 10:23:00;;;;;;;6.55;3.83;;;;;;;32.41;23.58;102102.34;5033778;28;20380;-83
2023/06/15 10:25:36;;;;;;;6.43;4.15;;;;;;;31.70;23.76;102101.91;5033404;28;20029;-82
2023/06/15 10:28:03;;;;;;;7.78;3.85;;;;;;;31.15;23.53;102106.72;5033203;28;20504;-84
2023/06/15 10:30:53;;;;;;;9.27;4.50;;;;;;;30.86;24.40;102101.97;5034000;28;20042;-82
2023/06/15 10:33:18;;;;;;;7.05;4.28;;;;;;;30.88;24.78;102105.41;5033284;28;20072;-83
2023/06/15 10:36:08;;;;;;;7.35;4.22;;;;;;;30.77;25.14;102105.97;5033450;28;20133;-84
2023/06/15 10:38:49;;;;;;;8.93;4.03;;;;;;;30.19;25.70;102108.88;5034209;28;20041;-83
2023/06/15 10:41:15;;;;;;;7.25;4.22;;;;;;;30.73;25.02;102103.53;5037334;28;20044;-84
2023/06/15 10:44:00;;;;;;;8.05;4.13;;;;;;;30.53;25.76;102101.84;5035338;28;20447;-83
2023/06/15 10:46:37;;;;;;;6.57;4.30;;;;;;;30.78;26.01;102106.84;5033205;28;20042;-83
2023/06/15 10:49:08;;;;;;;14.75;4.32;;;;;;;30.10;27.14;102112.03;5032898;28;20044;-83
2023/06/15 10:51:52;;;;;;;9.48;4.38;;;;;;;30.49;27.09;102113.75;5033554;28;20072;-82
2023/06/15 10:54:26;;;;;;;6.82;4.60;;;;;;;30.65;28.65;102114.69;5033649;28;20083;-84
2023/06/15 10:56:57;;;;;;;12.00;4.75;;;;;;;30.42;29.68;102114.94;5032596;28;20038;-82
2023/06/15 10:59:38;;;;;;;9.52;4.45;;;;;;;30.15;29.60;102112.66;5042086;28;20045;-82
2023/06/15 11:02:28;;;;;;;11.27;4.55;;;;;;;30.70;28.09;102103.69;5027134;28;20046;-83
2023/06/15 11:05:14;;;;;;;7.28;4.63;;;;;;;29.88;29.26;102113.13;5035966;28;20103;-83
2023/06/15 11:07:43;;;;;;;9.57;4.43;;;;;;;30.47;28.28;102110.22;5035096;28;20086;-84
2023/06/15 11:10:28;;;;;;;7.30;4.15;;;;;;;30.10;28.18;102103.09;5033986;28;20041;-83
2023/06/15 11:13:04;;;;;;;12.05;4.18;;;;;;;29.89;29.02;102110.31;5033811;28;20049;-83
2023/06/15 11:16:13;;;;;;;7.72;4.35;;;;;;;30.08;26.59;102107.66;5035334;28;20045;-84
2023/06/15 11:19:16;;;;;;;12.45;4.13;;;;;;;30.16;26.93;102106.34;5035958;28;20045;-83
2023/06/15 11:22:25;;;;;;;8.82;4.22;;;;;;;29.49;26.99;102111.34;5033283;28;20036;-85
2023/06/15 11:24:55;;;;;;;5.78;4.20;;;;;;;29.32;26.84;102104.03;5039924;28;20041;-86
2023/06/15 11:27:22;;;;;;;7.88;3.97;;;;;;;30.03;26.21;102104.31;5038037;28;20034;-84